Time;durP1;ratioP1;P1;durP2;ratioP2;P2;SDS_P1;SDS_P2;PMS_P1;PMS_P2;Temp;Humidity;BMP_temperature;BMP_pressure;BME280_temperature;BME280_humidity;BME280_pressure;Samples;Min_cycle;Max_cycle;Signal;HPM_P1;HPM_P2
2022/01/14 00:02:45;;;;;;;;;;;;;;;-5.48;82.98;97992.38;10290285;28;96908;-73
2022/01/14 00:07:47;;;;;;;;;;;;;;;-5.47;83.16;97990.69;10289037;28;96973;-73
2022/01/14 00:12:54;;;;;;;;;;;;;;;-5.46;82.84;97988.16;10288786;28;97402;-73
2022/01/14 00:17:58;;;;;;;;;;;;;;;-5.50;83.05;97993.25;10289617;28;97181;-73
2022/01/14 00:23:01;;;;;;;;;;;;;;;-5.54;82.46;97991.59;10287810;28;96894;-73
2022/01/14 00:33:25;;;;;;;;;;;;;;;-5.71;82.96;97971.28;10287196;28;101571;-74
2022/01/14 00:38:28;;;;;;;;;;;;;;;-5.68;83.12;97967.00;10289708;28;97290;-73
2022/01/14 00:43:30;;;;;;;;;;;;;;;-5.74;82.51;97963.63;10288145;28;96969;-73
2022/01/14 00:48:38;;;;;;;;;;;;;;;-5.75;82.64;97962.81;10288053;28;96926;-73
2022/01/14 00:53:41;;;;;;;;;;;;;;;-5.79;82.48;97973.81;10289256;28;96900;-73
2022/01/14 01:04:05;;;;;;;;;;;;;;;-5.81;83.13;97967.91;10292585;28;96843;-73
2022/01/14 01:09:11;;;;;;;;;;;;;;;-5.81;82.96;97960.25;10289433;28;96909;-74
2022/01/14 01:14:17;;;;;;;;;;;;;;;-5.81;82.91;97957.72;10286770;28;96929;-75
2022/01/14 01:19:21;;;;;;;;;;;;;;;-5.88;82.68;97956.06;10283883;28;96759;-74
2022/01/14 01:24:24;;;;;;;;;;;;;;;-5.95;82.47;97960.31;10285179;28;97175;-74
2022/01/14 01:29:44;;;;;;;;;;;;;;;-6.03;82.71;97962.88;10286740;28;96866;-73
2022/01/14 01:34:49;;;;;;;;;;;;;;;-6.09;82.56;97967.97;10292181;28;96985;-73
2022/01/14 01:39:51;;;;;;;;;;;;;;;-6.16;82.30;97971.41;10293232;28;99666;-73
2022/01/14 01:44:54;;;;;;;;;;;;;;;-6.19;82.87;97981.56;10293034;28;96954;-73
2022/01/14 01:49:58;;;;;;;;;;;;;;;-6.21;83.22;97988.34;10297220;28;96849;-73
2022/01/14 01:55:00;;;;;;;;;;;;;;;-6.24;82.79;97998.53;10298739;28;96827;-73
2022/01/14 02:00:04;;;;;;;;;;;;;;;-6.30;82.51;97999.41;10296254;28;97122;-73
2022/01/14 02:05:09;;;;;;;;;;;;;;;-6.30;83.35;97998.56;10297680;28;96868;-73
2022/01/14 02:10:12;;;;;;;;;;;;;;;-6.39;83.67;97990.06;10298026;28;96977;-73
2022/01/14 02:15:27;;;;;;;;;;;;;;;-6.36;83.24;97988.38;10295097;28;96714;-73
2022/01/14 02:25:51;;;;;;;;;;;;;;;-6.48;83.24;97982.47;10295983;28;97315;-73
2022/01/14 02:30:54;;;;;;;;;;;;;;;-6.49;83.42;97973.13;10291611;28;96987;-73
2022/01/14 02:35:59;;;;;;;;;;;;;;;-6.47;83.03;97973.97;10296337;28;96846;-75
2022/01/14 02:41:02;;;;;;;;;;;;;;;-6.51;82.89;97976.53;10298232;28;98388;-73
2022/01/14 02:46:06;;;;;;;;;;;;;;;-6.54;82.58;97972.28;10297417;28;96935;-73
2022/01/14 02:51:12;;;;;;;;;;;;;;;-6.57;82.53;97964.66;10294485;28;101491;-74
2022/01/14 02:56:17;;;;;;;;;;;;;;;-6.66;82.58;97965.50;10299663;28;96779;-73
2022/01/14 03:01:23;;;;;;;;;;;;;;;-6.65;82.74;97951.13;10304981;28;96996;-73
2022/01/14 03:06:28;;;;;;;;;;;;;;;-6.68;82.18;97951.13;10291565;28;96895;-73
2022/01/14 03:11:32;;;;;;;;;;;;;;;-6.72;82.25;97950.28;10298765;28;96928;-73
2022/01/14 03:16:39;;;;;;;;;;;;;;;-6.77;82.74;97945.19;10295810;28;96929;-73
2022/01/14 03:21:43;;;;;;;;;;;;;;;-6.76;82.61;97948.56;10293050;28;97609;-73
2022/01/14 03:26:46;;;;;;;;;;;;;;;-6.77;83.22;97940.09;10296016;28;96872;-73
2022/01/14 03:31:49;;;;;;;;;;;;;;;-6.74;82.93;97940.94;10293016;28;97111;-73
2022/01/14 03:36:53;;;;;;;;;;;;;;;-6.78;82.71;97938.41;10295536;28;98472;-73
2022/01/14 03:41:56;;;;;;;;;;;;;;;-6.83;82.92;97942.66;10294144;28;99573;-74
2022/01/14 03:46:58;;;;;;;;;;;;;;;-6.82;82.29;97934.16;10296324;28;96793;-73
2022/01/14 03:52:02;;;;;;;;;;;;;;;-6.87;82.71;97946.03;10294303;28;96810;-73
2022/01/14 03:57:05;;;;;;;;;;;;;;;-6.94;81.91;97941.78;10292740;28;96992;-73
2022/01/14 04:02:08;;;;;;;;;;;;;;;-6.92;82.94;97937.56;10292195;28;97236;-73
2022/01/14 04:07:12;;;;;;;;;;;;;;;-6.84;82.93;97945.19;10293740;28;96921;-73
2022/01/14 04:12:19;;;;;;;;;;;;;;;-6.80;82.88;97934.16;10291231;28;96817;-73
2022/01/14 04:17:22;;;;;;;;;;;;;;;-6.80;82.77;97922.28;10297272;28;97125;-74
2022/01/14 04:22:26;;;;;;;;;;;;;;;-6.81;82.72;97910.47;10294503;28;97769;-73
2022/01/14 04:27:28;;;;;;;;;;;;;;;-6.90;82.29;97923.16;10289645;28;97943;-73
2022/01/14 04:32:31;;;;;;;;;;;;;;;-6.96;82.45;97910.47;10292604;28;97227;-73
2022/01/14 04:37:36;;;;;;;;;;;;;;;-7.01;82.59;97907.06;10292861;28;96841;-73
2022/01/14 04:42:41;;;;;;;;;;;;;;;-7.01;83.07;97904.53;10290664;28;96731;-74
2022/01/14 04:47:46;;;;;;;;;;;;;;;-7.04;82.81;97902.81;10290930;28;96774;-73
2022/01/14 04:52:50;;;;;;;;;;;;;;;-7.10;82.74;97902.00;10292828;28;98189;-74
2022/01/14 04:57:54;;;;;;;;;;;;;;;-7.15;82.59;97904.53;10292560;28;96984;-73
2022/01/14 05:02:57;;;;;;;;;;;;;;;-7.17;82.53;97908.75;10271272;28;96903;-74
2022/01/14 05:08:01;;;;;;;;;;;;;;;-7.13;82.96;97906.19;10294172;28;98493;-72
2022/01/14 05:13:04;;;;;;;;;;;;;;;-7.18;81.92;97905.34;10293127;28;99427;-73
2022/01/14 05:18:07;;;;;;;;;;;;;;;-7.22;82.33;97901.13;10292667;28;97344;-73
2022/01/14 05:23:11;;;;;;;;;;;;;;;-7.22;82.21;97897.75;10300967;28;96905;-73
2022/01/14 05:28:13;;;;;;;;;;;;;;;-7.22;82.96;97898.59;10298320;28;96917;-73
2022/01/14 05:33:17;;;;;;;;;;;;;;;-7.20;83.04;97899.44;10292430;28;97535;-73
2022/01/14 05:38:22;;;;;;;;;;;;;;;-7.15;82.06;97899.44;10302568;28;96817;-73
2022/01/14 05:43:24;;;;;;;;;;;;;;;-7.16;82.07;97893.53;10299120;28;96914;-73
2022/01/14 05:48:27;;;;;;;;;;;;;;;-7.20;82.70;97880.81;10294904;28;99875;-73
2022/01/14 05:53:31;;;;;;;;;;;;;;;-7.28;82.43;97878.28;10303625;28;96903;-72
2022/01/14 05:58:37;;;;;;;;;;;;;;;-7.36;82.17;97875.72;10298509;28;96950;-73
2022/01/14 06:03:40;;;;;;;;;;;;;;;-7.39;82.42;97882.47;10292764;28;96788;-72
2022/01/14 06:08:48;;;;;;;;;;;;;;;-7.42;81.63;97874.88;10313715;28;96739;-73
2022/01/14 06:13:50;;;;;;;;;;;;;;;-7.40;82.74;97883.31;10299150;28;96912;-73
2022/01/14 06:18:53;;;;;;;;;;;;;;;-7.43;82.44;97886.75;10296702;28;97184;-72
2022/01/14 06:23:57;;;;;;;;;;;;;;;-7.48;82.38;97890.13;10296132;28;97004;-73
2022/01/14 06:28:59;;;;;;;;;;;;;;;-7.47;81.63;97889.25;10296804;28;96805;-72
2022/01/14 06:34:02;;;;;;;;;;;;;;;-7.45;82.02;97895.19;10293346;28;96744;-76
2022/01/14 06:39:06;;;;;;;;;;;;;;;-7.45;81.98;97895.19;10295647;28;97094;-73
2022/01/14 06:44:09;;;;;;;;;;;;;;;-7.46;82.78;97884.19;10297341;28;97161;-73
2022/01/14 06:49:11;;;;;;;;;;;;;;;-7.50;82.11;97887.59;10296976;28;96931;-70
2022/01/14 06:54:15;;;;;;;;;;;;;;;-7.48;81.70;97885.06;10294342;28;96783;-71
2022/01/14 06:59:18;;;;;;;;;;;;;;;-7.48;81.88;97890.13;10298629;28;96830;-70
2022/01/14 07:04:21;;;;;;;;;;;;;;;-7.54;81.73;97894.34;10292986;28;96789;-70
2022/01/14 07:09:26;;;;;;;;;;;;;;;-7.59;81.67;97883.34;10291588;28;96954;-72
2022/01/14 07:14:29;;;;;;;;;;;;;;;-7.47;82.54;97876.56;10290836;28;96899;-72
2022/01/14 07:19:31;;;;;;;;;;;;;;;-7.36;83.29;97879.97;10296294;28;96970;-71
2022/01/14 07:24:36;;;;;;;;;;;;;;;-7.34;81.87;97878.25;10294239;28;96919;-70
2022/01/14 07:29:39;;;;;;;;;;;;;;;-7.41;82.01;97886.72;10298405;28;99389;-73
2022/01/14 07:34:42;;;;;;;;;;;;;;;-7.43;82.36;97893.53;10293667;28;97015;-71
2022/01/14 07:39:46;;;;;;;;;;;;;;;-7.41;83.25;97896.88;10288277;28;98230;-73
2022/01/14 07:44:49;;;;;;;;;;;;;;;-7.42;82.24;97895.19;10292327;28;97313;-73
2022/01/14 07:49:53;;;;;;;;;;;;;;;-7.41;82.09;97907.03;10289957;28;97131;-73
2022/01/14 07:54:57;;;;;;;;;;;;;;;-7.40;82.08;97908.72;10289690;28;98771;-74
2022/01/14 07:59:59;;;;;;;;;;;;;;;-7.33;82.46;97911.28;10288360;28;99511;-73
2022/01/14 08:05:12;;;;;;;;;;;;;;;-7.27;83.17;97900.28;10466764;27;96780;-71
2022/01/14 08:10:15;;;;;;;;;;;;;;;-7.20;82.38;97906.22;10418713;27;96953;-74
2022/01/14 08:15:18;;;;;;;;;;;;;;;-7.07;82.83;97907.06;10413673;27;97298;-74
2022/01/14 08:20:22;;;;;;;;;;;;;;;-6.89;83.44;97901.16;10423149;27;97079;-73
2022/01/14 08:25:25;;;;;;;;;;;;;;;-6.83;83.27;97891.84;10423393;27;101451;-73
2022/01/14 08:30:27;;;;;;;;;;;;;;;-6.85;82.97;97898.59;10417160;27;99729;-73
2022/01/14 08:35:32;;;;;;;;;;;;;;;-6.85;82.56;97901.13;10447756;27;97191;-74
2022/01/14 08:40:35;;;;;;;;;;;;;;;-6.78;82.68;97895.22;10430963;27;96808;-76
2022/01/14 08:45:38;;;;;;;;;;;;;;;-6.67;83.11;97889.25;10422651;27;97278;-73
2022/01/14 08:50:42;;;;;;;;;;;;;;;-6.55;83.34;97880.75;10421577;27;98751;-73
2022/01/14 08:55:45;;;;;;;;;;;;;;;-6.43;83.23;97884.13;10425092;27;97157;-73
2022/01/14 09:00:49;;;;;;;;;;;;;;;-6.25;83.42;97879.84;10419465;27;99890;-73
2022/01/14 09:05:53;;;;;;;;;;;;;;;-6.18;83.34;97873.88;10435205;27;96817;-73
2022/01/14 09:10:55;;;;;;;;;;;;;;;-6.09;83.36;97880.66;10426557;27;98461;-73
2022/01/14 09:15:58;;;;;;;;;;;;;;;-5.84;83.58;97876.28;10395360;28;97388;-74
2022/01/14 09:21:02;;;;;;;;;;;;;;;-5.75;83.40;97881.34;10389065;28;96982;-71
2022/01/14 09:26:08;;;;;;;;;;;;;;;-5.77;82.90;97875.41;10394168;28;97992;-71
2022/01/14 09:31:10;;;;;;;;;;;;;;;-5.73;83.08;97872.00;10390383;28;96763;-71
2022/01/14 09:36:14;;;;;;;;;;;;;;;-5.65;83.21;97877.91;10404494;28;96767;-71
2022/01/14 09:41:18;;;;;;;;;;;;;;;-5.57;83.00;97871.91;10389519;28;98117;-71
2022/01/14 09:46:21;;;;;;;;;;;;;;;-5.47;83.11;97874.38;10386480;28;97178;-70
2022/01/14 09:51:25;;;;;;;;;;;;;;;-5.29;83.39;97875.97;10390637;28;96942;-72
2022/01/14 09:56:28;;;;;;;;;;;;;;;-5.19;83.40;97870.81;10400663;28;96978;-70
2022/01/14 10:01:38;;;;;;;;;;;;;;;-4.94;83.06;97867.16;10404913;28;98420;-70
2022/01/14 10:06:43;;;;;;;;;;;;;;;-4.71;83.96;97861.00;10385768;28;96894;-70
2022/01/14 10:11:59;;;;;;;;;;;;;;;-4.47;84.32;97856.53;10390110;28;96911;-73
2022/01/14 10:17:03;;;;;;;;;;;;;;;-4.31;82.95;97861.47;10391962;28;97185;-73
2022/01/14 10:22:19;;;;;;;;;;;;;;;-4.13;83.08;97862.97;10392064;28;97233;-73
2022/01/14 10:27:32;;;;;;;;;;;;;;;-3.95;83.21;97850.84;10378139;28;97323;-73
2022/01/14 10:32:36;;;;;;;;;;;;;;;-3.69;84.00;97842.00;10395209;28;96904;-73
2022/01/14 10:37:41;;;;;;;;;;;;;;;-3.38;83.66;97832.19;10387861;28;98150;-72
2022/01/14 10:42:44;;;;;;;;;;;;;;;-3.23;83.14;97818.34;10383375;28;97133;-71
2022/01/14 10:47:57;;;;;;;;;;;;;;;-3.14;82.74;97804.56;10399749;28;97262;-71
2022/01/14 10:53:02;;;;;;;;;;;;;;;-3.04;82.80;97800.97;10390076;28;96830;-72
2022/01/14 10:58:08;;;;;;;;;;;;;;;-2.88;83.81;97793.88;10387811;28;97072;-71
2022/01/14 11:03:33;;;;;;;;;;;;;;;-2.74;84.11;97788.53;10393755;28;97136;-70
2022/01/14 11:08:38;;;;;;;;;;;;;;;-2.59;84.15;97778.00;10383903;28;97060;-72
2022/01/14 11:13:41;;;;;;;;;;;;;;;-2.43;82.87;97776.00;10385478;28;97342;-71
2022/01/14 11:18:46;;;;;;;;;;;;;;;-2.34;83.86;97773.25;10398087;28;97375;-71
2022/01/14 11:23:50;;;;;;;;;;;;;;;-2.29;83.96;97766.31;10382706;28;97135;-72
2022/01/14 11:28:53;;;;;;;;;;;;;;;-2.13;83.84;97760.88;10391065;28;96895;-71
2022/01/14 11:33:57;;;;;;;;;;;;;;;-2.07;84.13;97747.97;10385890;28;97281;-72
2022/01/14 11:39:17;;;;;;;;;;;;;;;-1.91;84.08;97736.50;10370281;28;101699;-71
2022/01/14 11:44:34;;;;;;;;;;;;;;;-1.71;83.32;97720.69;10384230;28;97206;-71
2022/01/14 11:49:40;;;;;;;;;;;;;;;-1.62;82.97;97717.06;10391620;28;97564;-72
2022/01/14 11:54:46;;;;;;;;;;;;;;;-1.46;83.97;97710.66;10397077;28;97171;-71
2022/01/14 11:59:48;;;;;;;;;;;;;;;-1.32;83.12;97710.31;10393463;28;97132;-71
2022/01/14 12:05:02;;;;;;;;;;;;;;;-1.17;83.41;97695.41;10390366;28;96758;-71
2022/01/14 12:10:09;;;;;;;;;;;;;;;-1.04;83.16;97690.81;10385626;28;97309;-71
2022/01/14 12:15:38;;;;;;;;;;;;;;;-1.03;82.88;97680.53;10375687;28;99764;-71
2022/01/14 12:20:48;;;;;;;;;;;;;;;-0.90;83.57;97675.91;10374956;28;97100;-71
2022/01/14 12:25:52;;;;;;;;;;;;;;;-0.80;83.12;97679.06;10372477;28;97914;-71
2022/01/14 12:30:59;;;;;;;;;;;;;;;-0.67;83.19;97667.56;10370864;28;97949;-72
2022/01/14 12:36:08;;;;;;;;;;;;;;;-0.57;82.98;97660.44;10377755;28;97196;-73
2022/01/14 12:41:15;;;;;;;;;;;;;;;-0.39;83.12;97644.50;10377122;28;97175;-71
2022/01/14 12:46:34;;;;;;;;;;;;;;;-0.24;82.80;97637.22;10386389;28;96699;-72
2022/01/14 12:51:38;;;;;;;;;;;;;;;-0.08;82.77;97630.72;10399663;28;97987;-71
2022/01/14 12:56:42;;;;;;;;;;;;;;;0.07;82.54;97628.56;10393368;28;97454;-73
2022/01/14 13:01:49;;;;;;;;;;;;;;;0.14;82.62;97624.91;10403868;28;97115;-72
2022/01/14 13:06:53;;;;;;;;;;;;;;;0.25;82.33;97617.66;10404430;28;96889;-72
2022/01/14 13:11:59;;;;;;;;;;;;;;;0.32;82.44;97616.56;10384482;28;96744;-74
2022/01/14 13:17:03;;;;;;;;;;;;;;;0.45;82.17;97604.16;10398231;28;97157;-72
2022/01/14 13:22:09;;;;;;;;;;;;;;;0.43;82.71;97611.09;10395678;28;97084;-72
2022/01/14 13:27:15;;;;;;;;;;;;;;;0.54;82.62;97608.16;10398514;27;96879;-72
2022/01/14 13:32:20;;;;;;;;;;;;;;;0.56;82.80;97596.09;10402206;28;97060;-73
2022/01/14 13:37:23;;;;;;;;;;;;;;;0.71;83.52;97590.41;10403451;28;97417;-72
2022/01/14 13:42:27;;;;;;;;;;;;;;;0.88;82.97;97586.38;10385697;28;96983;-72
2022/01/14 13:47:34;;;;;;;;;;;;;;;0.98;82.04;97591.16;10397331;28;97360;-72
2022/01/14 13:52:37;;;;;;;;;;;;;;;1.10;81.78;97579.56;10392643;28;96847;-72
2022/01/14 13:57:41;;;;;;;;;;;;;;;1.29;82.55;97576.31;10378640;28;98457;-72
2022/01/14 14:02:48;;;;;;;;;;;;;;;1.44;82.18;97570.59;10398219;28;97194;-72
2022/01/14 14:07:53;;;;;;;;;;;;;;;1.59;82.47;97569.19;10402913;28;96794;-71
2022/01/14 14:13:08;;;;;;;;;;;;;;;1.73;82.74;97555.75;10388115;28;96960;-72
2022/01/14 14:18:11;;;;;;;;;;;;;;;1.84;82.51;97563.88;10392753;28;97098;-72
2022/01/14 14:23:17;;;;;;;;;;;;;;;1.93;81.95;97557.53;10399073;28;96739;-72
2022/01/14 14:28:26;;;;;;;;;;;;;;;2.02;82.22;97558.88;10392263;28;97204;-72
2022/01/14 14:33:29;;;;;;;;;;;;;;;2.10;82.66;97555.09;10396050;28;97435;-72
2022/01/14 14:38:33;;;;;;;;;;;;;;;2.21;82.20;97557.22;10397536;28;97087;-72
2022/01/14 14:43:57;;;;;;;;;;;;;;;2.25;81.78;97558.78;10388911;28;98552;-74
2022/01/14 14:49:00;;;;;;;;;;;;;;;2.31;82.46;97558.50;10401211;28;97059;-72
2022/01/14 14:54:03;;;;;;;;;;;;;;;2.36;82.33;97544.59;10394156;28;97406;-74
2022/01/14 14:59:07;;;;;;;;;;;;;;;2.36;82.20;97550.59;10395849;28;97054;-72
2022/01/14 15:04:10;;;;;;;;;;;;;;;2.39;82.51;97550.47;10391202;28;96908;-73
2022/01/14 15:09:13;;;;;;;;;;;;;;;2.42;82.54;97546.91;10396612;28;96778;-71
2022/01/14 15:14:17;;;;;;;;;;;;;;;2.40;81.70;97539.22;10383472;28;99580;-72
2022/01/14 15:19:20;;;;;;;;;;;;;;;2.36;82.06;97534.28;10399265;28;97173;-72
2022/01/14 15:24:23;;;;;;;;;;;;;;;2.31;82.86;97535.31;10395581;28;96954;-72
2022/01/14 15:29:27;;;;;;;;;;;;;;;2.23;82.21;97526.22;10396498;28;101949;-72
2022/01/14 15:34:30;;;;;;;;;;;;;;;2.18;82.01;97525.56;10396799;28;97007;-72
2022/01/14 15:39:33;;;;;;;;;;;;;;;2.08;82.39;97519.97;10389561;28;96768;-71
2022/01/14 15:44:38;;;;;;;;;;;;;;;1.99;82.56;97525.50;10387577;28;97113;-71
2022/01/14 15:49:43;;;;;;;;;;;;;;;1.79;81.90;97521.16;10392784;28;96849;-72
2022/01/14 15:54:45;;;;;;;;;;;;;;;1.59;81.47;97524.53;10381732;28;96861;-72
2022/01/14 15:59:49;;;;;;;;;;;;;;;1.35;81.33;97529.75;10386765;28;97361;-72
2022/01/14 16:04:52;;;;;;;;;;;;;;;1.07;81.65;97529.94;10392433;28;98584;-71
2022/01/14 16:09:59;;;;;;;;;;;;;;;0.82;81.66;97535.16;10391915;28;96712;-71
2022/01/14 16:15:03;;;;;;;;;;;;;;;0.64;81.97;97526.38;10385228;28;96817;-72
2022/01/14 16:20:07;;;;;;;;;;;;;;;0.42;81.83;97533.09;10391308;28;97050;-72
2022/01/14 16:25:10;;;;;;;;;;;;;;;0.18;81.69;97527.06;10395875;28;96984;-72
2022/01/14 16:30:15;;;;;;;;;;;;;;;0.03;81.88;97543.88;10389107;28;96987;-72
2022/01/14 16:35:18;;;;;;;;;;;;;;;-0.07;82.12;97544.22;10407184;28;96642;-74
2022/01/14 16:40:21;;;;;;;;;;;;;;;-0.25;82.16;97540.50;10402352;28;99642;-71
2022/01/14 16:45:25;;;;;;;;;;;;;;;-0.47;82.73;97541.19;10392397;28;96892;-70
2022/01/14 16:50:28;;;;;;;;;;;;;;;-0.59;83.04;97539.00;10387612;28;99697;-71
2022/01/14 16:55:30;;;;;;;;;;;;;;;-0.72;83.21;97539.38;10384673;28;97221;-72
2022/01/14 17:00:34;;;;;;;;;;;;;;;-0.82;82.31;97537.13;10383190;28;97189;-75
2022/01/14 17:05:37;;;;;;;;;;;;;;;-1.08;82.56;97547.28;10384056;28;96775;-72
2022/01/14 17:10:40;;;;;;;;;;;;;;;-1.33;82.66;97552.25;10384516;28;96960;-71
2022/01/14 17:15:44;;;;;;;;;;;;;;;-1.38;83.20;97543.84;10382500;28;96869;-72
2022/01/14 17:20:47;;;;;;;;;;;;;;;-1.40;82.64;97542.22;10384562;28;96945;-71
2022/01/14 17:25:50;;;;;;;;;;;;;;;-1.49;82.35;97549.25;10380913;28;97004;-72
2022/01/14 17:30:54;;;;;;;;;;;;;;;-1.66;82.66;97547.19;10379838;28;96996;-71
2022/01/14 17:35:57;;;;;;;;;;;;;;;-1.82;82.04;97545.88;10381554;28;96888;-72
2022/01/14 17:41:01;;;;;;;;;;;;;;;-1.94;83.23;97549.59;10392436;28;97819;-72
2022/01/14 17:46:05;;;;;;;;;;;;;;;-2.10;83.60;97548.31;10395372;28;97295;-74
2022/01/14 17:51:07;;;;;;;;;;;;;;;-2.19;82.84;97546.81;10402331;28;97158;-71
2022/01/14 17:56:12;;;;;;;;;;;;;;;-2.20;82.90;97547.66;10392677;28;96916;-72
2022/01/14 18:01:16;;;;;;;;;;;;;;;-2.24;84.07;97553.75;10394585;28;97211;-71
2022/01/14 18:06:19;;;;;;;;;;;;;;;-2.29;84.38;97551.28;10389628;28;96843;-72
2022/01/14 18:11:27;;;;;;;;;;;;;;;-2.32;83.89;97541.13;10389352;28;102085;-73
2022/01/14 18:16:31;;;;;;;;;;;;;;;-2.31;83.75;97542.81;10394985;28;96919;-70
2022/01/14 18:21:34;;;;;;;;;;;;;;;-2.37;84.22;97548.06;10407864;28;96824;-72
2022/01/14 18:26:38;;;;;;;;;;;;;;;-2.38;84.15;97538.72;10390071;27;96804;-72
2022/01/14 18:31:42;;;;;;;;;;;;;;;-2.36;83.97;97524.16;10387805;28;97901;-71
2022/01/14 18:36:45;;;;;;;;;;;;;;;-2.39;83.91;97523.41;10391490;28;97180;-71
2022/01/14 18:41:48;;;;;;;;;;;;;;;-2.45;83.05;97524.41;10388280;28;97118;-71
2022/01/14 18:46:52;;;;;;;;;;;;;;;-2.51;83.73;97524.53;10398249;28;97156;-69
2022/01/14 18:51:55;;;;;;;;;;;;;;;-2.63;84.01;97511.16;10388171;28;96821;-72
2022/01/14 18:56:58;;;;;;;;;;;;;;;-2.79;84.03;97502.13;10386359;28;96850;-72
2022/01/14 19:02:02;;;;;;;;;;;;;;;-2.83;83.44;97492.88;10403344;28;97963;-72
2022/01/14 19:07:05;;;;;;;;;;;;;;;-2.83;84.68;97482.63;10393078;28;96863;-72
2022/01/14 19:12:09;;;;;;;;;;;;;;;-2.89;84.70;97467.44;10387525;28;98285;-73
2022/01/14 19:17:13;;;;;;;;;;;;;;;-2.89;83.37;97463.16;10390492;28;96814;-72
2022/01/14 19:22:16;;;;;;;;;;;;;;;-2.89;83.73;97459.75;10406725;28;96732;-71
2022/01/14 19:27:19;;;;;;;;;;;;;;;-2.94;83.21;97444.53;10385835;28;97243;-71
2022/01/14 19:32:24;;;;;;;;;;;;;;;-2.97;84.42;97450.53;10391094;28;97029;-71
2022/01/14 19:37:27;;;;;;;;;;;;;;;-3.00;84.46;97445.50;10392636;28;96994;-72
2022/01/14 19:42:30;;;;;;;;;;;;;;;-3.07;83.21;97436.28;10387709;28;96909;-71
2022/01/14 19:47:36;;;;;;;;;;;;;;;-3.11;83.94;97428.72;10389096;28;97227;-71
2022/01/14 19:52:39;;;;;;;;;;;;;;;-3.05;83.68;97436.25;10390488;28;96840;-71
2022/01/14 19:57:42;;;;;;;;;;;;;;;-3.07;82.93;97433.72;10388729;28;97723;-71
2022/01/14 20:02:46;;;;;;;;;;;;;;;-3.10;84.05;97438.91;10387259;28;96973;-71
2022/01/14 20:07:50;;;;;;;;;;;;;;;-3.12;83.28;97424.50;10391560;28;96929;-71
2022/01/14 20:12:53;;;;;;;;;;;;;;;-3.16;83.07;97418.63;10385943;28;96932;-71
2022/01/14 20:17:56;;;;;;;;;;;;;;;-3.22;83.70;97413.63;10384893;28;96701;-71
2022/01/14 20:23:04;;;;;;;;;;;;;;;-3.26;83.06;97406.91;10390291;28;97789;-72
2022/01/14 20:28:07;;;;;;;;;;;;;;;-3.32;82.45;97404.47;10388928;28;99769;-71
2022/01/14 20:33:11;;;;;;;;;;;;;;;-3.37;82.46;97405.44;10384033;28;96944;-71
2022/01/14 20:38:14;;;;;;;;;;;;;;;-3.47;83.99;97396.28;10387155;28;97125;-71
2022/01/14 20:43:17;;;;;;;;;;;;;;;-3.57;83.72;97394.81;10381111;28;97434;-71
2022/01/14 20:48:21;;;;;;;;;;;;;;;-3.61;84.56;97404.25;10395158;28;98101;-71
2022/01/14 20:53:24;;;;;;;;;;;;;;;-3.58;83.79;97395.69;10400343;28;97156;-73
2022/01/14 20:58:27;;;;;;;;;;;;;;;-3.59;83.57;97394.84;10393620;28;97898;-73
2022/01/14 21:03:32;;;;;;;;;;;;;;;-3.58;82.86;97393.13;10395792;28;97251;-71
2022/01/14 21:08:47;;;;;;;;;;;;;;;-3.65;84.02;97399.22;10378177;28;97562;-72
2022/01/14 21:13:49;;;;;;;;;;;;;;;-3.67;83.24;97390.75;10391408;28;99797;-71
2022/01/14 21:18:54;;;;;;;;;;;;;;;-3.65;84.21;97389.00;10396037;28;96948;-72
2022/01/14 21:23:57;;;;;;;;;;;;;;;-3.71;83.63;97384.06;10403291;28;96761;-73
2022/01/14 21:28:59;;;;;;;;;;;;;;;-3.75;82.75;97388.38;10395455;28;96912;-72
2022/01/14 21:34:03;;;;;;;;;;;;;;;-3.90;83.65;97384.41;10396699;28;96899;-72
2022/01/14 21:39:06;;;;;;;;;;;;;;;-4.01;84.78;97371.88;10389566;28;96858;-71
2022/01/14 21:44:09;;;;;;;;;;;;;;;-3.94;84.72;97370.06;10394467;28;96908;-71
2022/01/14 21:49:13;;;;;;;;;;;;;;;-3.95;84.18;97370.91;10396052;28;97376;-71
2022/01/14 21:54:16;;;;;;;;;;;;;;;-3.98;84.77;97365.84;10389575;28;96817;-71
2022/01/14 21:59:19;;;;;;;;;;;;;;;-3.95;83.98;97365.81;10393866;28;96821;-71
2022/01/14 22:04:23;;;;;;;;;;;;;;;-3.91;84.15;97357.22;10395323;28;101487;-71
2022/01/14 22:09:28;;;;;;;;;;;;;;;-3.86;84.94;97355.41;10390816;28;96868;-71
2022/01/14 22:14:33;;;;;;;;;;;;;;;-3.86;84.36;97354.56;10386506;28;96925;-71
2022/01/14 22:19:37;;;;;;;;;;;;;;;-3.89;83.51;97350.38;10394807;28;96967;-71
2022/01/14 22:24:40;;;;;;;;;;;;;;;-4.02;82.86;97351.50;10390516;28;96746;-71
2022/01/14 22:29:43;;;;;;;;;;;;;;;-4.05;83.43;97356.66;10389763;28;96990;-71
2022/01/14 22:34:47;;;;;;;;;;;;;;;-4.12;83.00;97349.13;10394665;28;96988;-71
2022/01/14 22:39:49;;;;;;;;;;;;;;;-4.17;83.10;97348.38;10392618;28;96921;-72
2022/01/14 22:44:52;;;;;;;;;;;;;;;-4.22;82.39;97346.78;10398349;28;97115;-71
2022/01/14 22:49:56;;;;;;;;;;;;;;;-4.26;83.67;97345.16;10383279;28;96730;-71
2022/01/14 22:54:59;;;;;;;;;;;;;;;-4.29;82.89;97340.97;10409290;28;96743;-71
2022/01/14 23:00:01;;;;;;;;;;;;;;;-4.33;83.15;97341.88;10376499;28;97077;-72
2022/01/14 23:05:08;;;;;;;;;;;;;;;-4.42;84.33;97342.06;10395483;28;99816;-72
2022/01/14 23:10:12;;;;;;;;;;;;;;;-4.56;84.21;97338.06;10400489;28;97247;-71
2022/01/14 23:15:16;;;;;;;;;;;;;;;-4.62;84.04;97338.19;10378520;28;96803;-72
2022/01/14 23:20:21;;;;;;;;;;;;;;;-4.61;84.70;97341.56;10388276;28;96734;-71
2022/01/14 23:25:24;;;;;;;;;;;;;;;-4.59;84.23;97337.28;10390147;28;97162;-71
2022/01/14 23:30:26;;;;;;;;;;;;;;;-4.61;83.87;97339.84;10385713;28;96930;-71
2022/01/14 23:35:30;;;;;;;;;;;;;;;-4.62;84.87;97337.31;10397978;28;97114;-71
2022/01/14 23:40:33;;;;;;;;;;;;;;;-4.60;84.36;97336.44;10391419;28;97106;-71
2022/01/14 23:45:49;;;;;;;;;;;;;;;-4.56;84.72;97327.84;10388695;28;96763;-72
2022/01/14 23:50:53;;;;;;;;;;;;;;;-4.53;84.80;97314.22;10386714;28;96932;-71
2022/01/14 23:55:56;;;;;;;;;;;;;;;-4.51;84.51;97298.00;10391027;28;98236;-71
